Hodge, California
Current Conditions -  °F | °C
As of 8:50 PM on Thursday 30 Oct 2014 (Local Time) from KDAG Reporting Station
Clear Clear  
Wind Chill: 21°   Ceiling: Unl
Heat Index: 21°   Visibility: 10mi
Dew Point: -4°   Wind: 7mph
Humidity: 19%   Direction: 270°W
Pressure: 29.95"   Gusts: NA
Location:  35.1476°N, 117.206°W
Report Text: KDAG 310350Z AUTO 27006KT 10SM CLR 21/M04 A2995 RMK AO2 SLP126 T02061039
Loading
Personal Weather Stations






























Interactive Weather Map
Tropical Storm Tracking
New forecast layout! Learn more

10-Day Weather Forecast

Advertisements
Track Severe Weather on mobile